Navigator — WDE7302 — position and weather

sailwx.info

Track history (hours):
 
Tides and Currents Weather Stations Pressure Air Temp Water Temp Dewpoint Dewpoint Depression Visibility Wind Speed Wind Dir Waves Ship Positions

Navigator

Owner: GT 108 Inc., Dover, DE. More information available from US FCC via Universal Licensing System and Coast Guard Vessel Documentation Center.

Last reported at 2018-Apr-26 11:30 UTC. Time now 2018-Apr-26 11:45 UTC.
Position N 42°23' W 071°04'.

Length 32 m; draft 4.7 m.

Type: Tug. MMSI: 366741180.

Date/timePositionNaut miles runAvg speedWind from/ knotsBaromVisibWave heightAir tempDewpointWater temp
2018-Apr-26 11:30N 42°23' W 071°04'0 0.0
2018-Apr-26 11:00N 42°23' W 071°04'0 0.0
2018-Apr-26 10:30N 42°23' W 071°04'0 0.0
2018-Apr-26 10:00N 42°23' W 071°04'0 0.0
2018-Apr-26 09:30N 42°23' W 071°04'0 0.0
2018-Apr-26 09:00N 42°23' W 071°04'0 0.0
2018-Apr-26 08:30N 42°23' W 071°04'0 0.0
2018-Apr-26 08:00N 42°23' W 071°04'0 0.0
2018-Apr-26 07:30N 42°23' W 071°04'0 0.0
2018-Apr-26 07:01N 42°23' W 071°04'0 0.0
2018-Apr-26 06:31N 42°23' W 071°04'0 0.0
2018-Apr-26 06:01N 42°23' W 071°04'0 0.0
2018-Apr-26 05:30N 42°23' W 071°04'0 0.0
2018-Apr-26 05:00N 42°23' W 071°04'0 0.0
2018-Apr-26 04:30N 42°23' W 071°04'0 0.0
2018-Apr-26 04:00N 42°23' W 071°04'0 0.0
2018-Apr-26 03:30N 42°23' W 071°04'0 0.0
2018-Apr-26 03:00N 42°23' W 071°04'0 0.0
2018-Apr-26 02:30N 42°23' W 071°04'0 0.0
2018-Apr-26 02:00N 42°23' W 071°04'0 0.0
2018-Apr-26 01:30N 42°23' W 071°04'0 0.0
2018-Apr-26 01:00N 42°23' W 071°04'0 0.0
2018-Apr-26 00:31N 42°23' W 071°04'0 0.0
2018-Apr-26 00:00N 42°23' W 071°04'0 0.0
2018-Apr-25 23:30N 42°23' W 071°04'0 0.0
2018-Apr-25 23:00N 42°23' W 071°04'0 0.0
2018-Apr-25 22:30N 42°23' W 071°04'0 0.0
2018-Apr-25 22:00N 42°23' W 071°04'0 0.0
2018-Apr-25 21:30N 42°23' W 071°04'0 0.0
2018-Apr-25 21:00N 42°23' W 071°04'0 0.0
2018-Apr-25 20:30N 42°23' W 071°04'0 0.0
2018-Apr-25 20:00N 42°23' W 071°04'0 0.1
2018-Apr-25 19:30N 42°23' W 071°04'0 0.0
2018-Apr-25 19:00N 42°23' W 071°04'0 0.0
2018-Apr-25 18:30N 42°23' W 071°04'0 0.0
2018-Apr-25 18:00N 42°23' W 071°04'0 0.0
2018-Apr-25 17:30N 42°23' W 071°04'0 0.0
2018-Apr-25 17:00N 42°23' W 071°04'0 0.0
2018-Apr-25 16:30N 42°23' W 071°04'0 0.0
2018-Apr-25 16:00N 42°23' W 071°04'0 0.0
2018-Apr-25 15:30N 42°23' W 071°04'0 0.0
2018-Apr-25 15:00N 42°23' W 071°04'0 0.0
2018-Apr-25 14:30N 42°23' W 071°04'0 0.0
2018-Apr-25 14:00N 42°23' W 071°04'0 0.0
2018-Apr-25 13:30N 42°23' W 071°04'0 0.0
2018-Apr-25 13:00N 42°23' W 071°04'0 0.0
2018-Apr-25 12:30N 42°23' W 071°04'2 4.9
2018-Apr-25 12:00N 42°21' W 071°02'4 6.3
2018-Apr-25 11:24N 42°20' W 070°57'4 9.3
2018-Apr-25 11:00N 42°23' W 070°53'4 7.9
2018-Apr-25 10:30N 42°21' W 070°48'4 8.9
2018-Apr-25 10:01N 42°18' W 070°44'5 8.9
2018-Apr-25 09:29N 42°15' W 070°40'4 8.9
2018-Apr-25 08:59N 42°10' W 070°38'53 7.2
2018-Apr-25 01:39N 41°23' W 071°10'2 9.8
2018-Apr-25 01:27N 41°23' W 071°12'42 9.1
2018-Apr-24 20:53N 41°14' W 072°07'3 7.9
2018-Apr-24 20:29N 41°14' W 072°11'4 8.2
2018-Apr-24 20:00N 41°13' W 072°16'4 8.0
2018-Apr-24 19:30N 41°12' W 072°21'4 8.2
2018-Apr-24 19:00N 41°11' W 072°27'4 8.9
2018-Apr-24 18:30N 41°11' W 072°33'5 9.5
2018-Apr-24 18:00N 41°11' W 072°39'5 9.5
2018-Apr-24 17:30N 41°12' W 072°45'  
2018-Apr-22 02:49N 40°55' W 073°38'310.9
2018-Apr-22 02:30N 40°54' W 073°42'510.9
2018-Apr-22 02:00N 40°50' W 073°47'5 9.4
2018-Apr-22 01:30N 40°48' W 073°52'4 8.9
2018-Apr-22 01:00N 40°45' W 073°57'5 9.2
2018-Apr-22 00:30N 40°42' W 074°00'5 9.4
2018-Apr-22 00:01N 40°39' W 074°06'3 6.7
2018-Apr-21 23:30N 40°39' W 074°10'0 0.0
2018-Apr-21 23:00N 40°39' W 074°10'0 0.0
2018-Apr-21 22:30N 40°39' W 074°10'0 0.0
2018-Apr-21 22:00N 40°39' W 074°10'0 0.0
2018-Apr-21 21:30N 40°39' W 074°10'0 0.0
2018-Apr-21 21:00N 40°39' W 074°10'0 0.0
2018-Apr-21 20:30N 40°39' W 074°10'0 1.0
2018-Apr-21 20:00N 40°39' W 074°11'1 2.1
2018-Apr-21 19:30N 40°38' W 074°12'0 0.0
2018-Apr-21 19:00N 40°38' W 074°12'0 0.0
2018-Apr-21 18:30N 40°38' W 074°12'0 0.0
2018-Apr-21 17:58N 40°38' W 074°12'0 0.0
2018-Apr-21 17:30N 40°38' W 074°12'0 0.0
2018-Apr-21 17:00N 40°38' W 074°12'1 2.6
2018-Apr-21 16:30N 40°39' W 074°10'5 9.2
2018-Apr-21 16:00N 40°39' W 074°04'611.6
2018-Apr-21 15:30N 40°33' W 074°02'611.7
2018-Apr-21 14:58N 40°29' W 073°56'3210.1
2018-Apr-21 11:50N 39°57' W 074°01'710.3
2018-Apr-21 11:12N 39°51' W 074°02'310.2
2018-Apr-21 10:55N 39°48' W 074°03'410.2
2018-Apr-21 10:30N 39°44' W 074°04'510.2
2018-Apr-21 10:00N 39°39' W 074°06'510.1
2018-Apr-21 09:30N 39°34' W 074°09'58 7.8
2018-Apr-21 01:58N 38°57' W 075°07'4 8.8
2018-Apr-21 01:30N 39°01' W 075°09'5 9.8
2018-Apr-21 01:00N 39°05' W 075°11'510.9
2018-Apr-21 00:30N 39°10' W 075°15'712.8
2018-Apr-20 23:58N 39°15' W 075°20'613.5
2018-Apr-20 23:30N 39°20' W 075°25'713.2
2018-Apr-20 23:00N 39°25' W 075°31'611.7
2018-Apr-20 22:30N 39°31' W 075°33'611.3
2018-Apr-20 22:00N 39°36' W 075°34'510.2
2018-Apr-20 21:30N 39°41' W 075°31'5 9.6
2018-Apr-20 21:01N 39°45' W 075°29'4 8.6
2018-Apr-20 20:31N 39°48' W 075°25'4 8.2
2018-Apr-20 20:00N 39°51' W 075°21'4 8.2
2018-Apr-20 19:30N 39°51' W 075°15'4 8.5
2018-Apr-20 19:00N 39°53' W 075°10'3 6.8
2018-Apr-20 18:30N 39°56' W 075°08'3 6.5
2018-Apr-20 18:00N 39°59' W 075°06'0 0.0
2018-Apr-20 17:30N 39°59' W 075°06'0 0.0
2018-Apr-20 17:00N 39°59' W 075°06'0 0.0
2018-Apr-20 16:31N 39°59' W 075°06'0 0.0
2018-Apr-20 16:00N 39°59' W 075°06'0 0.0
2018-Apr-20 15:30N 39°59' W 075°06'0 0.0
2018-Apr-20 15:01N 39°59' W 075°06'0 0.0
2018-Apr-20 14:30N 39°59' W 075°06'0 0.0
2018-Apr-20 13:59N 39°59' W 075°06'0 0.0
2018-Apr-20 13:30N 39°59' W 075°06'0 0.0
2018-Apr-20 13:00N 39°59' W 075°06'0 0.0
2018-Apr-20 12:31N 39°59' W 075°06'0 0.0
2018-Apr-20 11:59N 39°59' W 075°06'0 0.0
2018-Apr-20 11:30N 39°59' W 075°06'0 0.0
2018-Apr-20 10:52N 39°59' W 075°06'0 0.1
2018-Apr-20 10:30N 39°59' W 075°06'0 0.0
2018-Apr-20 10:00N 39°59' W 075°06'2 3.9
2018-Apr-20 09:30N 39°57' W 075°08'4 8.2
2018-Apr-20 08:59N 39°53' W 075°08'3 7.1
2018-Apr-20 08:30N 39°52' W 075°13'3 7.0
2018-Apr-20 08:00N 39°51' W 075°17'4 7.2
2018-Apr-20 07:30N 39°50' W 075°21'4 7.2
2018-Apr-20 07:00N 39°48' W 075°25'4 7.2
2018-Apr-20 06:30N 39°46' W 075°29'4 7.6
2018-Apr-20 06:00N 39°42' W 075°31'3 6.5
2018-Apr-20 05:30N 39°39' W 075°33'3 6.0
2018-Apr-20 05:00N 39°37' W 075°35'2 4.5
2018-Apr-20 04:30N 39°35' W 075°33'1 2.8
2018-Apr-20 04:00N 39°33' W 075°32'1 2.1
2018-Apr-20 03:30N 39°32' W 075°33'2 4.0
2018-Apr-20 03:00N 39°30' W 075°33'3 6.6
2018-Apr-20 02:30N 39°27' W 075°33'3 6.3
2018-Apr-20 02:00N 39°25' W 075°30'3 6.1
2018-Apr-20 01:30N 39°22' W 075°28'3 5.7
2018-Apr-20 01:00N 39°20' W 075°25'2 4.9
2018-Apr-20 00:30N 39°18' W 075°23'2 4.2
2018-Apr-20 00:00N 39°17' W 075°22'3 4.6
2018-Apr-19 23:19N 39°15' W 075°19'1 4.3
2018-Apr-19 23:00N 39°13' W 075°18'2 4.3
2018-Apr-19 22:30N 39°11' W 075°17'2 4.4
2018-Apr-19 22:00N 39°10' W 075°15'2 4.5
2018-Apr-19 21:30N 39°08' W 075°13'2 4.5
2018-Apr-19 21:00N 39°06' W 075°12'2 4.4
2018-Apr-19 20:30N 39°04' W 075°10'2 4.4
2018-Apr-19 19:59N 39°02' W 075°09'2 4.5
2018-Apr-19 19:29N 38°60' W 075°08'57 5.7
2018-Apr-19 09:25N 39°32' W 074°07'3 7.8
2018-Apr-19 08:59N 39°35' W 074°05'4 7.8
2018-Apr-19 08:30N 39°38' W 074°04'4 7.8
2018-Apr-19 08:00N 39°42' W 074°02'4 7.8
2018-Apr-19 07:28N 39°46' W 074°00'4 7.9
2018-Apr-19 06:59N 39°50' W 073°59'34 7.6
2018-Apr-19 02:33N 40°23' W 073°55'2 7.6
2018-Apr-19 02:19N 40°25' W 073°55'2 7.4
2018-Apr-19 01:59N 40°27' W 073°55'3 5.6
2018-Apr-19 01:30N 40°30' W 073°57'3 6.2
2018-Apr-19 01:00N 40°31' W 074°00'3 5.8
2018-Apr-19 00:29N 40°34' W 074°02'3 6.8
2018-Apr-19 00:00N 40°37' W 074°03'3 5.5
2018-Apr-18 23:30N 40°40' W 074°01'1 1.7
2018-Apr-18 23:00N 40°40' W 074°00'0 0.2
2018-Apr-18 22:30N 40°40' W 074°00'0 0.1
2018-Apr-18 22:00N 40°40' W 074°00'0 0.0
2018-Apr-18 21:30N 40°40' W 074°00'0 0.0
2018-Apr-18 21:00N 40°40' W 074°00'0 0.0
2018-Apr-18 20:30N 40°40' W 074°00'0 0.0
2018-Apr-18 20:00N 40°40' W 074°00'0 0.0
2018-Apr-18 19:30N 40°40' W 074°00'0 0.0
2018-Apr-18 19:00N 40°40' W 074°00'0 0.0
2018-Apr-18 18:30N 40°40' W 074°00'0 0.0
2018-Apr-18 18:00N 40°40' W 074°00'0 0.0
2018-Apr-18 17:30N 40°40' W 074°00'0 0.0
2018-Apr-18 17:00N 40°40' W 074°00'0 0.1
2018-Apr-18 16:30N 40°40' W 074°00'0 0.1
2018-Apr-18 16:00N 40°40' W 074°00'0 0.0
2018-Apr-18 15:30N 40°40' W 074°00'0 0.0
2018-Apr-18 15:00N 40°40' W 074°00'0 0.0
2018-Apr-18 14:30N 40°40' W 074°00'0 0.0
2018-Apr-18 14:00N 40°40' W 074°00'0 0.0
2018-Apr-18 13:30N 40°40' W 074°00'0 0.0
2018-Apr-18 13:00N 40°40' W 074°00'0 0.0
2018-Apr-18 12:30N 40°40' W 074°00'0 0.0
2018-Apr-18 12:00N 40°40' W 074°00'0 0.0
2018-Apr-18 11:30N 40°40' W 074°00'0 0.0
2018-Apr-18 11:00N 40°40' W 074°00'0 0.0
2018-Apr-18 10:30N 40°40' W 074°00'0 0.0
2018-Apr-18 10:01N 40°40' W 074°00'0 0.0
2018-Apr-18 09:30N 40°40' W 074°00'0 0.0
2018-Apr-18 09:01N 40°40' W 074°00'0 0.0
2018-Apr-18 08:31N 40°40' W 074°00'0 0.0
2018-Apr-18 08:00N 40°40' W 074°00'0 0.0
2018-Apr-18 07:31N 40°40' W 074°00'1 1.4
2018-Apr-18 07:01N 40°40' W 074°01'2 4.2
2018-Apr-18 06:30N 40°38' W 074°03'1 2.4
2018-Apr-18 06:01N 40°37' W 074°03'0 0.4
2018-Apr-18 05:30N 40°36' W 074°03'0 0.3
2018-Apr-18 05:00N 40°37' W 074°03'1 1.9
2018-Apr-18 04:30N 40°36' W 074°02'1 1.4
2018-Apr-18 03:59N 40°35' W 074°02'0 0.8
2018-Apr-18 03:30N 40°35' W 074°02'3 6.8
2018-Apr-18 03:00N 40°32' W 074°01'5 7.7
2018-Apr-18 02:24N 40°30' W 073°55'3 7.7
2018-Apr-18 02:00N 40°26' W 073°54'30 8.2
2018-Apr-17 22:20N 39°56' W 073°57'3 8.0
2018-Apr-17 21:59N 39°54' W 073°57'4 8.0
2018-Apr-17 21:27N 39°49' W 073°58'4 8.0
2018-Apr-17 21:01N 39°46' W 073°59'4 8.1
2018-Apr-17 20:30N 39°42' W 074°01'4 7.9
2018-Apr-17 20:00N 39°38' W 074°03'4 8.1
2018-Apr-17 19:31N 39°35' W 074°04'4 8.1
2018-Apr-17 19:00N 39°31' W 074°07'57 5.3
2018-Apr-17 08:13N 38°59' W 075°08'2 5.8
2018-Apr-17 07:55N 39°01' W 075°09'3 7.1
2018-Apr-17 07:29N 39°04' W 075°11'4 7.3
2018-Apr-17 07:00N 39°07' W 075°13'3 6.2
2018-Apr-17 06:29N 39°09' W 075°15'3 6.2
2018-Apr-17 06:00N 39°12' W 075°17'3 6.1
2018-Apr-17 05:30N 39°15' W 075°19'4 7.0
2018-Apr-17 05:00N 39°17' W 075°22'3 5.8
2018-Apr-17 04:30N 39°19' W 075°25'3 6.8
2018-Apr-17 04:00N 39°22' W 075°28'3 7.1
2018-Apr-17 03:30N 39°25' W 075°31'3 6.7
2018-Apr-17 03:00N 39°27' W 075°33'3 6.6
2018-Apr-17 02:30N 39°30' W 075°33'3 6.7
2018-Apr-17 02:00N 39°34' W 075°33'3 6.8
2018-Apr-17 01:30N 39°37' W 075°35'2 4.4
2018-Apr-17 01:00N 39°39' W 075°33'3 5.2
2018-Apr-17 00:30N 39°41' W 075°31'3 6.0
2018-Apr-17 00:00N 39°44' W 075°30'3 5.8
2018-Apr-16 23:30N 39°46' W 075°28'3 5.7
2018-Apr-16 23:00N 39°48' W 075°26'3 5.7
2018-Apr-16 22:31N 39°50' W 075°22'3 6.3
2018-Apr-16 22:01N 39°51' W 075°19'3 6.2
2018-Apr-16 21:30N 39°51' W 075°15'3 6.5
2018-Apr-16 21:00N 39°53' W 075°11'3 5.6
2018-Apr-16 20:30N 39°54' W 075°08'1 1.6
2018-Apr-16 20:00N 39°55' W 075°08'0 0.0
2018-Apr-16 19:30N 39°55' W 075°08'0 0.0
2018-Apr-16 19:00N 39°55' W 075°08'0 0.0
2018-Apr-16 18:31N 39°55' W 075°08'0 0.0
2018-Apr-16 18:00N 39°55' W 075°08'0 0.0
2018-Apr-16 17:30N 39°55' W 075°08'0 0.0
2018-Apr-16 17:00N 39°55' W 075°08'0 0.0
2018-Apr-16 16:30N 39°55' W 075°08'0 0.0
2018-Apr-16 16:00N 39°55' W 075°08'0 0.0
2018-Apr-16 15:31N 39°55' W 075°08'0 0.0
2018-Apr-16 15:00N 39°55' W 075°08'0 0.0
2018-Apr-16 14:30N 39°55' W 075°08'0 0.0
2018-Apr-16 14:01N 39°55' W 075°08'0 0.0
2018-Apr-16 13:30N 39°55' W 075°08'0 0.0
2018-Apr-16 13:01N 39°55' W 075°08'0 0.0
2018-Apr-16 12:30N 39°55' W 075°08'0 0.0
2018-Apr-16 12:00N 39°55' W 075°08'0 0.0
2018-Apr-16 11:30N 39°55' W 075°08'  
Track history (hours):
 
Tides and Currents Weather Stations Pressure Air Temp Water Temp Dewpoint Dewpoint Depression Visibility Wind Speed Wind Dir Waves Ship Positions

Navigator

Owner: GT 108 Inc., Dover, DE. More information available from US FCC via Universal Licensing System and Coast Guard Vessel Documentation Center.

Last reported at 2018-Apr-26 11:30 UTC. Time now 2018-Apr-26 11:45 UTC.
Position N 42°23' W 071°04'.

Length 32 m; draft 4.7 m.

Type: Tug. MMSI: 366741180.

Date/timePositionNaut miles runAvg speedWind from/ knotsBaromVisibWave heightAir tempDewpointWater temp
2018-Apr-26 11:30N 42°23' W 071°04'0 0.0
2018-Apr-26 11:00N 42°23' W 071°04'0 0.0
2018-Apr-26 10:30N 42°23' W 071°04'0 0.0
2018-Apr-26 10:00N 42°23' W 071°04'0 0.0
2018-Apr-26 09:30N 42°23' W 071°04'0 0.0
2018-Apr-26 09:00N 42°23' W 071°04'0 0.0
2018-Apr-26 08:30N 42°23' W 071°04'0 0.0
2018-Apr-26 08:00N 42°23' W 071°04'0 0.0
2018-Apr-26 07:30N 42°23' W 071°04'0 0.0
2018-Apr-26 07:01N 42°23' W 071°04'0 0.0
2018-Apr-26 06:31N 42°23' W 071°04'0 0.0
2018-Apr-26 06:01N 42°23' W 071°04'0 0.0
2018-Apr-26 05:30N 42°23' W 071°04'0 0.0
2018-Apr-26 05:00N 42°23' W 071°04'0 0.0
2018-Apr-26 04:30N 42°23' W 071°04'0 0.0
2018-Apr-26 04:00N 42°23' W 071°04'0 0.0
2018-Apr-26 03:30N 42°23' W 071°04'0 0.0
2018-Apr-26 03:00N 42°23' W 071°04'0 0.0
2018-Apr-26 02:30N 42°23' W 071°04'0 0.0
2018-Apr-26 02:00N 42°23' W 071°04'0 0.0
2018-Apr-26 01:30N 42°23' W 071°04'0 0.0
2018-Apr-26 01:00N 42°23' W 071°04'0 0.0
2018-Apr-26 00:31N 42°23' W 071°04'0 0.0
2018-Apr-26 00:00N 42°23' W 071°04'0 0.0
2018-Apr-25 23:30N 42°23' W 071°04'0 0.0
2018-Apr-25 23:00N 42°23' W 071°04'0 0.0
2018-Apr-25 22:30N 42°23' W 071°04'0 0.0
2018-Apr-25 22:00N 42°23' W 071°04'0 0.0
2018-Apr-25 21:30N 42°23' W 071°04'0 0.0
2018-Apr-25 21:00N 42°23' W 071°04'0 0.0
2018-Apr-25 20:30N 42°23' W 071°04'0 0.0
2018-Apr-25 20:00N 42°23' W 071°04'0 0.1
2018-Apr-25 19:30N 42°23' W 071°04'0 0.0
2018-Apr-25 19:00N 42°23' W 071°04'0 0.0
2018-Apr-25 18:30N 42°23' W 071°04'0 0.0
2018-Apr-25 18:00N 42°23' W 071°04'0 0.0
2018-Apr-25 17:30N 42°23' W 071°04'0 0.0
2018-Apr-25 17:00N 42°23' W 071°04'0 0.0
2018-Apr-25 16:30N 42°23' W 071°04'0 0.0
2018-Apr-25 16:00N 42°23' W 071°04'0 0.0
2018-Apr-25 15:30N 42°23' W 071°04'0 0.0
2018-Apr-25 15:00N 42°23' W 071°04'0 0.0
2018-Apr-25 14:30N 42°23' W 071°04'0 0.0
2018-Apr-25 14:00N 42°23' W 071°04'0 0.0
2018-Apr-25 13:30N 42°23' W 071°04'0 0.0
2018-Apr-25 13:00N 42°23' W 071°04'0 0.0
2018-Apr-25 12:30N 42°23' W 071°04'2 4.9
2018-Apr-25 12:00N 42°21' W 071°02'4 6.3
2018-Apr-25 11:24N 42°20' W 070°57'4 9.3
2018-Apr-25 11:00N 42°23' W 070°53'4 7.9
2018-Apr-25 10:30N 42°21' W 070°48'4 8.9
2018-Apr-25 10:01N 42°18' W 070°44'5 8.9
2018-Apr-25 09:29N 42°15' W 070°40'4 8.9
2018-Apr-25 08:59N 42°10' W 070°38'53 7.2
2018-Apr-25 01:39N 41°23' W 071°10'2 9.8
2018-Apr-25 01:27N 41°23' W 071°12'42 9.1
2018-Apr-24 20:53N 41°14' W 072°07'3 7.9
2018-Apr-24 20:29N 41°14' W 072°11'4 8.2
2018-Apr-24 20:00N 41°13' W 072°16'4 8.0
2018-Apr-24 19:30N 41°12' W 072°21'4 8.2
2018-Apr-24 19:00N 41°11' W 072°27'4 8.9
2018-Apr-24 18:30N 41°11' W 072°33'5 9.5
2018-Apr-24 18:00N 41°11' W 072°39'5 9.5
2018-Apr-24 17:30N 41°12' W 072°45'  
2018-Apr-22 02:49N 40°55' W 073°38'310.9
2018-Apr-22 02:30N 40°54' W 073°42'510.9
2018-Apr-22 02:00N 40°50' W 073°47'5 9.4
2018-Apr-22 01:30N 40°48' W 073°52'4 8.9
2018-Apr-22 01:00N 40°45' W 073°57'5 9.2
2018-Apr-22 00:30N 40°42' W 074°00'5 9.4
2018-Apr-22 00:01N 40°39' W 074°06'3 6.7
2018-Apr-21 23:30N 40°39' W 074°10'0 0.0
2018-Apr-21 23:00N 40°39' W 074°10'0 0.0
2018-Apr-21 22:30N 40°39' W 074°10'0 0.0
2018-Apr-21 22:00N 40°39' W 074°10'0 0.0
2018-Apr-21 21:30N 40°39' W 074°10'0 0.0
2018-Apr-21 21:00N 40°39' W 074°10'0 0.0
2018-Apr-21 20:30N 40°39' W 074°10'0 1.0
2018-Apr-21 20:00N 40°39' W 074°11'1 2.1
2018-Apr-21 19:30N 40°38' W 074°12'0 0.0
2018-Apr-21 19:00N 40°38' W 074°12'0 0.0
2018-Apr-21 18:30N 40°38' W 074°12'0 0.0
2018-Apr-21 17:58N 40°38' W 074°12'0 0.0
2018-Apr-21 17:30N 40°38' W 074°12'0 0.0
2018-Apr-21 17:00N 40°38' W 074°12'1 2.6
2018-Apr-21 16:30N 40°39' W 074°10'5 9.2
2018-Apr-21 16:00N 40°39' W 074°04'611.6
2018-Apr-21 15:30N 40°33' W 074°02'611.7
2018-Apr-21 14:58N 40°29' W 073°56'3210.1
2018-Apr-21 11:50N 39°57' W 074°01'710.3
2018-Apr-21 11:12N 39°51' W 074°02'310.2
2018-Apr-21 10:55N 39°48' W 074°03'410.2
2018-Apr-21 10:30N 39°44' W 074°04'510.2
2018-Apr-21 10:00N 39°39' W 074°06'510.1
2018-Apr-21 09:30N 39°34' W 074°09'58 7.8
2018-Apr-21 01:58N 38°57' W 075°07'4 8.8
2018-Apr-21 01:30N 39°01' W 075°09'5 9.8
2018-Apr-21 01:00N 39°05' W 075°11'510.9
2018-Apr-21 00:30N 39°10' W 075°15'712.8
2018-Apr-20 23:58N 39°15' W 075°20'613.5
2018-Apr-20 23:30N 39°20' W 075°25'713.2
2018-Apr-20 23:00N 39°25' W 075°31'611.7
2018-Apr-20 22:30N 39°31' W 075°33'611.3
2018-Apr-20 22:00N 39°36' W 075°34'510.2
2018-Apr-20 21:30N 39°41' W 075°31'5 9.6
2018-Apr-20 21:01N 39°45' W 075°29'4 8.6
2018-Apr-20 20:31N 39°48' W 075°25'4 8.2
2018-Apr-20 20:00N 39°51' W 075°21'4 8.2
2018-Apr-20 19:30N 39°51' W 075°15'4 8.5
2018-Apr-20 19:00N 39°53' W 075°10'3 6.8
2018-Apr-20 18:30N 39°56' W 075°08'3 6.5
2018-Apr-20 18:00N 39°59' W 075°06'0 0.0
2018-Apr-20 17:30N 39°59' W 075°06'0 0.0
2018-Apr-20 17:00N 39°59' W 075°06'0 0.0
2018-Apr-20 16:31N 39°59' W 075°06'0 0.0
2018-Apr-20 16:00N 39°59' W 075°06'0 0.0
2018-Apr-20 15:30N 39°59' W 075°06'0 0.0
2018-Apr-20 15:01N 39°59' W 075°06'0 0.0
2018-Apr-20 14:30N 39°59' W 075°06'0 0.0
2018-Apr-20 13:59N 39°59' W 075°06'0 0.0
2018-Apr-20 13:30N 39°59' W 075°06'0 0.0
2018-Apr-20 13:00N 39°59' W 075°06'0 0.0
2018-Apr-20 12:31N 39°59' W 075°06'0 0.0
2018-Apr-20 11:59N 39°59' W 075°06'0 0.0
2018-Apr-20 11:30N 39°59' W 075°06'0 0.0
2018-Apr-20 10:52N 39°59' W 075°06'0 0.1
2018-Apr-20 10:30N 39°59' W 075°06'0 0.0
2018-Apr-20 10:00N 39°59' W 075°06'2 3.9
2018-Apr-20 09:30N 39°57' W 075°08'4 8.2
2018-Apr-20 08:59N 39°53' W 075°08'3 7.1
2018-Apr-20 08:30N 39°52' W 075°13'3 7.0
2018-Apr-20 08:00N 39°51' W 075°17'4 7.2
2018-Apr-20 07:30N 39°50' W 075°21'4 7.2
2018-Apr-20 07:00N 39°48' W 075°25'4 7.2
2018-Apr-20 06:30N 39°46' W 075°29'4 7.6
2018-Apr-20 06:00N 39°42' W 075°31'3 6.5
2018-Apr-20 05:30N 39°39' W 075°33'3 6.0
2018-Apr-20 05:00N 39°37' W 075°35'2 4.5
2018-Apr-20 04:30N 39°35' W 075°33'1 2.8
2018-Apr-20 04:00N 39°33' W 075°32'1 2.1
2018-Apr-20 03:30N 39°32' W 075°33'2 4.0
2018-Apr-20 03:00N 39°30' W 075°33'3 6.6
2018-Apr-20 02:30N 39°27' W 075°33'3 6.3
2018-Apr-20 02:00N 39°25' W 075°30'3 6.1
2018-Apr-20 01:30N 39°22' W 075°28'3 5.7
2018-Apr-20 01:00N 39°20' W 075°25'2 4.9
2018-Apr-20 00:30N 39°18' W 075°23'2 4.2
2018-Apr-20 00:00N 39°17' W 075°22'3 4.6
2018-Apr-19 23:19N 39°15' W 075°19'1 4.3
2018-Apr-19 23:00N 39°13' W 075°18'2 4.3
2018-Apr-19 22:30N 39°11' W 075°17'2 4.4
2018-Apr-19 22:00N 39°10' W 075°15'2 4.5
2018-Apr-19 21:30N 39°08' W 075°13'2 4.5
2018-Apr-19 21:00N 39°06' W 075°12'2 4.4
2018-Apr-19 20:30N 39°04' W 075°10'2 4.4
2018-Apr-19 19:59N 39°02' W 075°09'2 4.5
2018-Apr-19 19:29N 38°60' W 075°08'57 5.7
2018-Apr-19 09:25N 39°32' W 074°07'3 7.8
2018-Apr-19 08:59N 39°35' W 074°05'4 7.8
2018-Apr-19 08:30N 39°38' W 074°04'4 7.8
2018-Apr-19 08:00N 39°42' W 074°02'4 7.8
2018-Apr-19 07:28N 39°46' W 074°00'4 7.9
2018-Apr-19 06:59N 39°50' W 073°59'34 7.6
2018-Apr-19 02:33N 40°23' W 073°55'2 7.6
2018-Apr-19 02:19N 40°25' W 073°55'2 7.4
2018-Apr-19 01:59N 40°27' W 073°55'3 5.6
2018-Apr-19 01:30N 40°30' W 073°57'3 6.2
2018-Apr-19 01:00N 40°31' W 074°00'3 5.8
2018-Apr-19 00:29N 40°34' W 074°02'3 6.8
2018-Apr-19 00:00N 40°37' W 074°03'3 5.5
2018-Apr-18 23:30N 40°40' W 074°01'1 1.7
2018-Apr-18 23:00N 40°40' W 074°00'0 0.2
2018-Apr-18 22:30N 40°40' W 074°00'0 0.1
2018-Apr-18 22:00N 40°40' W 074°00'0 0.0
2018-Apr-18 21:30N 40°40' W 074°00'0 0.0
2018-Apr-18 21:00N 40°40' W 074°00'0 0.0
2018-Apr-18 20:30N 40°40' W 074°00'0 0.0
2018-Apr-18 20:00N 40°40' W 074°00'0 0.0
2018-Apr-18 19:30N 40°40' W 074°00'0 0.0
2018-Apr-18 19:00N 40°40' W 074°00'0 0.0
2018-Apr-18 18:30N 40°40' W 074°00'0 0.0
2018-Apr-18 18:00N 40°40' W 074°00'0 0.0
2018-Apr-18 17:30N 40°40' W 074°00'0 0.0
2018-Apr-18 17:00N 40°40' W 074°00'0 0.1
2018-Apr-18 16:30N 40°40' W 074°00'0 0.1
2018-Apr-18 16:00N 40°40' W 074°00'0 0.0
2018-Apr-18 15:30N 40°40' W 074°00'0 0.0
2018-Apr-18 15:00N 40°40' W 074°00'0 0.0
2018-Apr-18 14:30N 40°40' W 074°00'0 0.0
2018-Apr-18 14:00N 40°40' W 074°00'0 0.0
2018-Apr-18 13:30N 40°40' W 074°00'0 0.0
2018-Apr-18 13:00N 40°40' W 074°00'0 0.0
2018-Apr-18 12:30N 40°40' W 074°00'0 0.0
2018-Apr-18 12:00N 40°40' W 074°00'0 0.0
2018-Apr-18 11:30N 40°40' W 074°00'0 0.0
2018-Apr-18 11:00N 40°40' W 074°00'0 0.0
2018-Apr-18 10:30N 40°40' W 074°00'0 0.0
2018-Apr-18 10:01N 40°40' W 074°00'0 0.0
2018-Apr-18 09:30N 40°40' W 074°00'0 0.0
2018-Apr-18 09:01N 40°40' W 074°00'0 0.0
2018-Apr-18 08:31N 40°40' W 074°00'0 0.0
2018-Apr-18 08:00N 40°40' W 074°00'0 0.0
2018-Apr-18 07:31N 40°40' W 074°00'1 1.4
2018-Apr-18 07:01N 40°40' W 074°01'2 4.2
2018-Apr-18 06:30N 40°38' W 074°03'1 2.4
2018-Apr-18 06:01N 40°37' W 074°03'0 0.4
2018-Apr-18 05:30N 40°36' W 074°03'0 0.3
2018-Apr-18 05:00N 40°37' W 074°03'1 1.9
2018-Apr-18 04:30N 40°36' W 074°02'1 1.4
2018-Apr-18 03:59N 40°35' W 074°02'0 0.8
2018-Apr-18 03:30N 40°35' W 074°02'3 6.8
2018-Apr-18 03:00N 40°32' W 074°01'5 7.7
2018-Apr-18 02:24N 40°30' W 073°55'3 7.7
2018-Apr-18 02:00N 40°26' W 073°54'30 8.2
2018-Apr-17 22:20N 39°56' W 073°57'3 8.0
2018-Apr-17 21:59N 39°54' W 073°57'4 8.0
2018-Apr-17 21:27N 39°49' W 073°58'4 8.0
2018-Apr-17 21:01N 39°46' W 073°59'4 8.1
2018-Apr-17 20:30N 39°42' W 074°01'4 7.9
2018-Apr-17 20:00N 39°38' W 074°03'4 8.1
2018-Apr-17 19:31N 39°35' W 074°04'4 8.1
2018-Apr-17 19:00N 39°31' W 074°07'57 5.3
2018-Apr-17 08:13N 38°59' W 075°08'2 5.8
2018-Apr-17 07:55N 39°01' W 075°09'3 7.1
2018-Apr-17 07:29N 39°04' W 075°11'4 7.3
2018-Apr-17 07:00N 39°07' W 075°13'3 6.2
2018-Apr-17 06:29N 39°09' W 075°15'3 6.2
2018-Apr-17 06:00N 39°12' W 075°17'3 6.1
2018-Apr-17 05:30N 39°15' W 075°19'4 7.0
2018-Apr-17 05:00N 39°17' W 075°22'3 5.8
2018-Apr-17 04:30N 39°19' W 075°25'3 6.8
2018-Apr-17 04:00N 39°22' W 075°28'3 7.1
2018-Apr-17 03:30N 39°25' W 075°31'3 6.7
2018-Apr-17 03:00N 39°27' W 075°33'3 6.6
2018-Apr-17 02:30N 39°30' W 075°33'3 6.7
2018-Apr-17 02:00N 39°34' W 075°33'3 6.8
2018-Apr-17 01:30N 39°37' W 075°35'2 4.4
2018-Apr-17 01:00N 39°39' W 075°33'3 5.2
2018-Apr-17 00:30N 39°41' W 075°31'3 6.0
2018-Apr-17 00:00N 39°44' W 075°30'3 5.8
2018-Apr-16 23:30N 39°46' W 075°28'3 5.7
2018-Apr-16 23:00N 39°48' W 075°26'3 5.7
2018-Apr-16 22:31N 39°50' W 075°22'3 6.3
2018-Apr-16 22:01N 39°51' W 075°19'3 6.2
2018-Apr-16 21:30N 39°51' W 075°15'3 6.5
2018-Apr-16 21:00N 39°53' W 075°11'3 5.6
2018-Apr-16 20:30N 39°54' W 075°08'1 1.6
2018-Apr-16 20:00N 39°55' W 075°08'0 0.0
2018-Apr-16 19:30N 39°55' W 075°08'0 0.0
2018-Apr-16 19:00N 39°55' W 075°08'0 0.0
2018-Apr-16 18:31N 39°55' W 075°08'0 0.0
2018-Apr-16 18:00N 39°55' W 075°08'0 0.0
2018-Apr-16 17:30N 39°55' W 075°08'0 0.0
2018-Apr-16 17:00N 39°55' W 075°08'0 0.0
2018-Apr-16 16:30N 39°55' W 075°08'0 0.0
2018-Apr-16 16:00N 39°55' W 075°08'0 0.0
2018-Apr-16 15:31N 39°55' W 075°08'0 0.0
2018-Apr-16 15:00N 39°55' W 075°08'0 0.0
2018-Apr-16 14:30N 39°55' W 075°08'0 0.0
2018-Apr-16 14:01N 39°55' W 075°08'0 0.0
2018-Apr-16 13:30N 39°55' W 075°08'0 0.0
2018-Apr-16 13:01N 39°55' W 075°08'0 0.0
2018-Apr-16 12:30N 39°55' W 075°08'0 0.0
2018-Apr-16 12:00N 39°55' W 075°08'0 0.0
2018-Apr-16 11:30N 39°55' W 075°08'  

Dump ship's entire track history